Time;durP1;ratioP1;P1;durP2;ratioP2;P2;SDS_P1;SDS_P2;PMS_P1;PMS_P2;Temp;Humidity;BMP_temperature;BMP_pressure;BME280_temperature;BME280_humidity;BME280_pressure;Samples;Min_cycle;Max_cycle;Signal;HPM_P1;HPM_P2
2023/03/28 00:01:40;;;;;;;14.80;1.90;;;3.20;99.90;;;;;;5112626;28;20042;-59
2023/03/28 00:04:05;;;;;;;11.18;2.60;;;3.20;99.90;;;;;;5112163;28;20039;-59
2023/03/28 00:06:31;;;;;;;13.25;1.80;;;3.20;99.90;;;;;;5112222;28;20050;-59
2023/03/28 00:08:57;;;;;;;12.60;1.83;;;3.30;99.90;;;;;;5112580;28;20038;-59
2023/03/28 00:11:23;;;;;;;10.23;1.77;;;3.30;99.90;;;;;;5112193;28;20042;-59
2023/03/28 00:13:59;;;;;;;8.63;2.13;;;3.30;99.90;;;;;;5114959;28;20088;-59
2023/03/28 00:16:31;;;;;;;13.63;1.90;;;3.20;99.90;;;;;;5115953;28;20042;-60
2023/03/28 00:19:01;;;;;;;11.68;1.83;;;3.30;99.90;;;;;;5115917;28;20496;-59
2023/03/28 00:21:30;;;;;;;8.55;1.80;;;3.30;99.90;;;;;;5116295;28;20042;-59
2023/03/28 00:24:03;;;;;;;11.55;1.67;;;3.20;99.90;;;;;;5115686;28;20051;-58
2023/03/28 00:26:31;;;;;;;9.15;1.67;;;3.10;99.90;;;;;;5114868;28;20354;-58
2023/03/28 00:28:57;;;;;;;12.60;2.28;;;3.10;99.90;;;;;;5115491;28;20035;-59
2023/03/28 00:31:25;;;;;;;10.63;2.10;;;3.10;99.90;;;;;;5114403;28;20042;-59
2023/03/28 00:33:51;;;;;;;9.80;1.60;;;3.10;99.90;;;;;;5115952;28;20036;-59
2023/03/28 00:36:21;;;;;;;20.95;2.58;;;3.10;99.90;;;;;;5114288;28;20040;-59
2023/03/28 00:38:48;;;;;;;12.95;1.90;;;3.00;99.90;;;;;;5115846;28;20047;-59
2023/03/28 00:41:17;;;;;;;10.35;2.00;;;3.00;99.90;;;;;;5115678;27;20031;-59
2023/03/28 00:43:48;;;;;;;16.55;2.33;;;3.10;99.90;;;;;;5115556;28;20054;-59
2023/03/28 00:46:23;;;;;;;8.60;1.75;;;3.00;99.90;;;;;;5115691;28;20371;-59
2023/03/28 00:48:57;;;;;;;7.03;1.67;;;3.00;99.90;;;;;;5113940;28;20070;-59
2023/03/28 00:51:28;;;;;;;9.52;2.33;;;3.00;99.90;;;;;;5115142;28;20058;-60
2023/03/28 00:53:59;;;;;;;13.63;2.03;;;2.90;99.90;;;;;;5115199;28;20205;-60
2023/03/28 00:56:28;;;;;;;10.70;2.35;;;2.80;99.90;;;;;;5115277;28;20031;-59
2023/03/28 00:58:56;;;;;;;11.85;1.98;;;2.80;99.90;;;;;;5115101;28;20046;-59
2023/03/28 01:01:22;;;;;;;14.05;2.22;;;2.80;99.90;;;;;;5115331;28;20035;-58
2023/03/28 01:03:55;;;;;;;9.85;1.50;;;2.80;99.90;;;;;;5115237;28;20042;-59
2023/03/28 01:06:21;;;;;;;9.63;2.03;;;2.80;99.90;;;;;;5115037;28;20048;-59
2023/03/28 01:08:48;;;;;;;12.43;2.35;;;2.80;99.90;;;;;;5115442;28;20042;-59
2023/03/28 01:11:14;;;;;;;18.17;2.28;;;2.70;99.90;;;;;;5115082;28;20035;-59
2023/03/28 01:13:45;;;;;;;10.63;1.75;;;2.70;99.90;;;;;;5115191;28;20044;-58
2023/03/28 01:16:13;;;;;;;16.13;2.20;;;2.70;99.90;;;;;;5114785;28;20031;-59
2023/03/28 01:18:40;;;;;;;9.15;1.60;;;2.60;99.90;;;;;;5114804;27;20096;-58
2023/03/28 01:21:33;;;;;;;10.90;2.05;;;2.60;99.90;;;;;;5114752;28;20507;-60
2023/03/28 01:24:17;;;;;;;12.77;1.70;;;2.50;99.90;;;;;;5114392;28;20043;-60
2023/03/28 01:26:48;;;;;;;8.65;1.77;;;2.60;99.90;;;;;;5114843;28;20043;-59
2023/03/28 01:29:29;;;;;;;12.75;1.90;;;2.40;99.90;;;;;;5114653;28;20035;-58
2023/03/28 01:32:28;;;;;;;11.73;1.58;;;2.40;99.90;;;;;;5114409;28;20520;-59
2023/03/28 01:35:09;;;;;;;15.07;2.85;;;2.50;99.90;;;;;;5114731;28;20079;-58
2023/03/28 01:37:44;;;;;;;16.10;2.25;;;2.50;99.90;;;;;;5114351;28;20046;-59
2023/03/28 01:40:24;;;;;;;6.57;1.52;;;2.50;99.90;;;;;;5114586;28;20031;-59
2023/03/28 01:43:08;;;;;;;;;;;2.50;99.90;;;;;;5114852;28;20043;-59
2023/03/28 01:46:06;;;;;;;10.77;1.73;;;2.60;99.90;;;;;;5114388;28;19915;-59
2023/03/28 01:48:56;;;;;;;16.95;2.33;;;2.50;99.90;;;;;;5114113;28;20051;-60
2023/03/28 01:51:43;;;;;;;6.28;1.67;;;2.50;99.90;;;;;;5114101;27;20039;-59
2023/03/28 01:54:40;;;;;;;11.52;2.05;;;2.50;99.90;;;;;;5113965;28;20051;-60
2023/03/28 01:57:22;;;;;;;14.57;1.73;;;2.50;99.90;;;;;;5114159;28;20032;-59
2023/03/28 02:00:28;;;;;;;13.32;2.15;;;2.50;99.90;;;;;;5114229;28;20048;-58
2023/03/28 02:03:09;;;;;;;7.50;2.03;;;2.60;99.90;;;;;;5031074;28;20049;-59
2023/03/28 02:05:37;;;;;;;8.00;2.15;;;2.60;99.90;;;;;;5030996;28;20065;-59
2023/03/28 02:08:07;;;;;;;16.30;2.33;;;2.50;99.90;;;;;;5031183;28;20046;-59
2023/03/28 02:10:35;;;;;;;8.98;1.95;;;2.30;99.90;;;;;;5031201;28;20053;-59
2023/03/28 02:13:17;;;;;;;13.83;2.00;;;2.40;99.90;;;;;;5030810;28;20045;-58
2023/03/28 02:15:50;;;;;;;15.25;1.83;;;2.30;99.90;;;;;;5030914;28;20033;-58
2023/03/28 02:18:22;;;;;;;13.02;1.95;;;2.30;99.90;;;;;;5030929;28;20126;-59
2023/03/28 02:20:55;;;;;;;18.15;3.15;;;2.30;99.90;;;;;;5014513;28;20053;-59
2023/03/28 02:23:28;;;;;;;14.70;2.95;;;2.40;99.90;;;;;;5030815;28;20056;-59
2023/03/28 02:25:54;;;;;;;10.55;3.13;;;2.30;99.90;;;;;;5014290;28;20050;-59
2023/03/28 02:28:22;;;;;;;15.98;3.00;;;2.30;99.90;;;;;;5030585;28;20403;-59
2023/03/28 02:30:47;;;;;;;17.55;3.22;;;2.20;99.90;;;;;;5030684;28;20562;-59
2023/03/28 02:33:40;;;;;;;8.20;2.00;;;2.20;99.90;;;;;;4997702;28;20111;-58
2023/03/28 02:36:21;;;;;;;15.90;3.00;;;2.20;99.90;;;;;;5030209;28;20073;-58
2023/03/28 02:39:00;;;;;;;13.95;2.70;;;2.20;99.90;;;;;;5035267;28;20042;-60
2023/03/28 02:41:44;;;;;;;10.73;2.33;;;2.10;99.90;;;;;;5113522;27;20092;-58
2023/03/28 02:44:09;;;;;;;14.05;2.03;;;2.10;99.90;;;;;;5113343;28;20050;-58
2023/03/28 02:47:10;;;;;;;9.90;2.17;;;2.00;99.90;;;;;;5112907;28;20039;-58
2023/03/28 02:49:47;;;;;;;11.73;2.80;;;2.00;99.90;;;;;;5013787;28;20461;-59
2023/03/28 02:52:33;;;;;;;16.58;2.97;;;2.10;99.90;;;;;;5030288;28;20048;-59
2023/03/28 02:55:25;;;;;;;13.93;2.33;;;2.10;99.90;;;;;;5030077;28;20049;-60
2023/03/28 02:57:57;;;;;;;10.13;1.92;;;2.10;99.90;;;;;;5011254;28;20057;-58
2023/03/28 03:00:23;;;;;;;10.30;2.35;;;2.00;99.90;;;;;;5030229;28;20076;-58
2023/03/28 03:02:50;;;;;;;11.20;1.60;;;2.00;99.90;;;;;;5030481;28;20567;-59
2023/03/28 03:05:19;;;;;;;14.95;2.58;;;1.90;99.90;;;;;;5023738;28;20444;-58
2023/03/28 03:07:45;;;;;;;12.20;1.92;;;1.90;99.90;;;;;;5010104;28;20511;-59
2023/03/28 03:10:13;;;;;;;12.25;2.00;;;1.90;99.90;;;;;;5009248;28;20084;-58
2023/03/28 03:12:39;;;;;;;9.48;1.70;;;1.90;99.90;;;;;;5009526;28;20536;-59
2023/03/28 03:15:06;;;;;;;9.55;1.65;;;1.80;99.90;;;;;;5010189;28;20439;-58
2023/03/28 03:17:32;;;;;;;11.93;1.80;;;1.80;99.90;;;;;;5010026;28;20121;-58
2023/03/28 03:19:58;;;;;;;12.27;2.00;;;1.90;99.90;;;;;;5010216;28;20054;-58
2023/03/28 03:22:24;;;;;;;12.65;2.05;;;1.90;99.90;;;;;;5010068;28;20518;-58
2023/03/28 03:24:50;;;;;;;13.23;2.40;;;1.80;99.90;;;;;;5010325;28;20042;-58
2023/03/28 03:27:19;;;;;;;14.18;1.80;;;1.90;99.90;;;;;;5079591;28;20390;-58
2023/03/28 03:29:47;;;;;;;11.93;2.08;;;1.80;99.90;;;;;;5092432;28;20086;-59
2023/03/28 03:32:13;;;;;;;18.42;3.03;;;1.80;99.90;;;;;;5092218;28;20055;-59
2023/03/28 03:34:40;;;;;;;5.95;1.70;;;1.80;99.90;;;;;;5091263;28;20457;-58
2023/03/28 03:37:07;;;;;;;15.10;2.25;;;1.80;99.90;;;;;;5092316;28;20241;-60
2023/03/28 03:39:35;;;;;;;18.25;2.35;;;1.80;99.90;;;;;;5092225;28;20072;-59
2023/03/28 03:42:02;;;;;;;10.25;1.95;;;1.70;99.90;;;;;;5092281;28;20055;-58
2023/03/28 03:44:28;;;;;;;11.05;1.98;;;1.70;99.90;;;;;;5092250;28;20129;-58
2023/03/28 03:46:53;;;;;;;11.27;2.30;;;1.70;99.90;;;;;;5092025;28;20160;-59
2023/03/28 03:49:19;;;;;;;12.73;2.22;;;1.70;99.90;;;;;;5095033;28;20044;-59
2023/03/28 03:51:44;;;;;;;17.55;2.20;;;1.70;99.90;;;;;;5094278;28;20044;-59
2023/03/28 03:54:10;;;;;;;14.95;2.40;;;1.80;99.90;;;;;;5095796;28;20126;-59
2023/03/28 03:56:36;;;;;;;13.35;2.13;;;1.70;99.90;;;;;;5095854;28;20063;-59
2023/03/28 03:59:03;;;;;;;12.02;2.08;;;1.70;99.90;;;;;;5093807;28;20076;-57
2023/03/28 04:01:28;;;;;;;12.75;2.10;;;1.70;99.90;;;;;;5095752;28;20047;-57
2023/03/28 04:03:55;;;;;;;11.80;2.55;;;1.80;99.90;;;;;;5095743;28;20046;-58
2023/03/28 04:06:21;;;;;;;4.95;1.67;;;1.80;99.90;;;;;;5095510;28;20101;-58
2023/03/28 04:08:47;;;;;;;7.00;1.88;;;1.70;99.90;;;;;;5077210;28;20052;-57
2023/03/28 04:11:13;;;;;;;15.30;3.33;;;1.70;99.90;;;;;;5095667;28;20122;-57
2023/03/28 04:13:38;;;;;;;12.63;2.08;;;1.70;99.90;;;;;;5094285;28;20082;-58
2023/03/28 04:16:05;;;;;;;13.73;2.28;;;1.70;99.90;;;;;;5095369;28;20039;-57
2023/03/28 04:18:32;;;;;;;10.77;2.13;;;1.70;99.90;;;;;;5095768;28;20036;-57
2023/03/28 04:21:01;;;;;;;15.57;2.00;;;1.70;99.90;;;;;;5095544;28;20055;-57
2023/03/28 04:23:27;;;;;;;10.98;2.10;;;1.80;99.90;;;;;;5077413;28;20093;-57
2023/03/28 04:26:00;;;;;;;9.27;1.67;;;1.70;99.90;;;;;;5095246;28;20040;-58
2023/03/28 04:28:26;;;;;;;15.35;2.58;;;1.70;99.90;;;;;;5095358;28;20414;-57
2023/03/28 04:30:58;;;;;;;10.43;1.90;;;1.70;99.90;;;;;;5093713;28;20040;-57
2023/03/28 04:33:26;;;;;;;11.10;2.45;;;1.70;99.90;;;;;;5095438;28;20036;-57
2023/03/28 04:35:55;;;;;;;14.70;2.35;;;1.60;99.90;;;;;;5095307;28;20070;-57
2023/03/28 04:38:26;;;;;;;19.88;2.47;;;1.50;99.90;;;;;;5095484;28;20449;-57
2023/03/28 04:40:56;;;;;;;17.40;2.35;;;1.50;99.90;;;;;;5095345;28;20545;-57
2023/03/28 04:43:25;;;;;;;15.73;2.05;;;1.50;99.90;;;;;;5095041;28;20044;-57
2023/03/28 04:45:54;;;;;;;11.93;2.10;;;1.50;99.90;;;;;;5094974;28;20125;-57
2023/03/28 04:48:21;;;;;;;13.23;2.00;;;1.50;99.90;;;;;;5093159;28;20474;-57
2023/03/28 04:50:47;;;;;;;13.27;2.60;;;1.50;99.90;;;;;;5094540;28;20040;-57
2023/03/28 04:53:13;;;;;;;15.13;2.63;;;1.50;99.90;;;;;;5094445;28;20041;-58
2023/03/28 04:55:39;;;;;;;11.82;2.63;;;1.50;99.90;;;;;;5093562;28;20044;-58
2023/03/28 04:58:05;;;;;;;12.82;2.53;;;1.50;99.90;;;;;;5094494;28;20039;-58
2023/03/28 05:00:31;;;;;;;13.52;2.10;;;1.50;99.90;;;;;;5094665;28;20381;-57
2023/03/28 05:03:03;;;;;;;16.50;2.67;;;1.50;99.90;;;;;;5094712;28;20040;-58
2023/03/28 05:05:30;;;;;;;14.60;2.17;;;1.50;99.90;;;;;;5093103;28;20040;-57
2023/03/28 05:07:59;;;;;;;17.77;2.92;;;1.40;99.90;;;;;;5094757;28;20047;-57
2023/03/28 05:10:25;;;;;;;16.92;2.22;;;1.50;99.90;;;;;;5094594;28;20032;-57
2023/03/28 05:12:50;;;;;;;10.43;2.40;;;1.50;99.90;;;;;;5093158;28;20467;-57
2023/03/28 05:15:16;;;;;;;16.83;2.30;;;1.80;99.90;;;;;;5094225;28;20046;-57
2023/03/28 05:17:42;;;;;;;15.40;2.70;;;1.50;99.90;;;;;;5094146;28;20043;-57
2023/03/28 05:20:09;;;;;;;9.70;1.90;;;1.60;99.90;;;;;;5094197;28;20072;-57
2023/03/28 05:22:36;;;;;;;11.98;2.38;;;1.40;99.90;;;;;;5094061;28;20051;-58
2023/03/28 05:25:02;;;;;;;7.82;2.67;;;1.40;99.90;;;;;;5094361;28;20090;-57
2023/03/28 05:27:28;;;;;;;11.52;2.63;;;1.40;99.90;;;;;;5094360;28;20434;-57
2023/03/28 05:29:54;;;;;;;10.88;2.35;;;1.50;99.90;;;;;;5093751;28;20110;-57
2023/03/28 05:32:20;;;;;;;14.10;2.60;;;1.60;99.90;;;;;;5093011;28;20393;-57
2023/03/28 05:34:46;;;;;;;16.00;2.28;;;1.60;99.90;;;;;;5094195;28;20036;-57
2023/03/28 05:37:12;;;;;;;10.63;2.30;;;1.60;99.90;;;;;;5093785;28;20114;-57
2023/03/28 05:39:37;;;;;;;14.93;2.70;;;1.80;99.90;;;;;;5094102;28;20051;-58
2023/03/28 05:42:03;;;;;;;10.40;2.95;;;1.80;99.90;;;;;;5094139;28;20529;-57
2023/03/28 05:44:29;;;;;;;10.07;2.63;;;1.80;99.90;;;;;;5098361;28;20523;-57
2023/03/28 05:46:55;;;;;;;11.18;2.30;;;1.90;99.90;;;;;;5114089;28;20088;-58
2023/03/28 05:49:21;;;;;;;11.15;2.75;;;2.00;99.90;;;;;;5113734;28;20043;-57
2023/03/28 05:51:47;;;;;;;14.55;2.40;;;2.10;99.90;;;;;;5114358;28;20043;-58
2023/03/28 05:54:12;;;;;;;10.00;1.95;;;2.10;99.90;;;;;;5114098;28;20397;-59
2023/03/28 05:56:38;;;;;;;10.52;2.42;;;2.30;99.90;;;;;;5113436;28;20471;-58
2023/03/28 05:59:04;;;;;;;12.10;2.88;;;2.40;99.90;;;;;;5113036;27;20043;-58
2023/03/28 06:01:30;;;;;;;14.30;2.15;;;2.40;99.90;;;;;;5113896;28;20043;-57
2023/03/28 06:03:56;;;;;;;16.33;2.75;;;2.70;99.90;;;;;;5113889;28;20046;-57
2023/03/28 06:06:21;;;;;;;12.05;2.22;;;2.60;99.90;;;;;;5113837;28;20040;-57
2023/03/28 06:08:47;;;;;;;8.18;1.85;;;2.60;99.90;;;;;;5113690;28;20436;-57
2023/03/28 06:11:13;;;;;;;19.92;2.45;;;2.80;99.90;;;;;;5113215;28;20035;-58
2023/03/28 06:13:39;;;;;;;14.30;2.70;;;2.90;99.90;;;;;;5113688;28;20113;-57
2023/03/28 06:16:05;;;;;;;15.65;2.92;;;2.90;99.90;;;;;;5113325;28;20046;-58
2023/03/28 06:18:30;;;;;;;15.02;3.42;;;2.90;99.90;;;;;;5113391;28;20042;-57
2023/03/28 06:20:56;;;;;;;8.00;2.42;;;2.90;99.90;;;;;;5113082;28;20082;-58
2023/03/28 06:23:22;;;;;;;13.60;2.53;;;3.00;99.90;;;;;;5113323;28;20116;-58
2023/03/28 06:25:49;;;;;;;14.95;3.58;;;3.00;99.90;;;;;;5113499;28;20121;-58
2023/03/28 06:28:15;;;;;;;11.80;2.63;;;3.10;99.90;;;;;;5113027;28;20495;-57
2023/03/28 06:30:40;;;;;;;15.10;2.22;;;3.10;99.90;;;;;;5113226;28;20055;-58
2023/03/28 06:33:06;;;;;;;10.63;2.38;;;3.20;99.90;;;;;;5113216;28;20389;-58
2023/03/28 06:35:33;;;;;;;17.40;2.88;;;3.30;99.90;;;;;;5112754;28;20042;-58
2023/03/28 06:37:59;;;;;;;12.32;2.40;;;3.40;99.90;;;;;;5113190;28;20040;-58
2023/03/28 06:40:25;;;;;;;14.02;2.42;;;3.40;99.90;;;;;;5112711;28;20036;-58
2023/03/28 06:42:52;;;;;;;10.02;3.50;;;3.50;99.90;;;;;;5112484;28;20039;-58
2023/03/28 06:45:18;;;;;;;15.15;2.78;;;3.60;99.90;;;;;;5111187;28;20142;-58
2023/03/28 06:47:44;;;;;;;13.05;2.10;;;3.60;99.90;;;;;;5112678;28;20078;-58
2023/03/28 06:50:11;;;;;;;11.27;2.25;;;3.60;99.90;;;;;;5112924;28;20397;-57
2023/03/28 06:52:37;;;;;;;14.82;3.22;;;3.60;99.90;;;;;;5111657;28;20083;-57
2023/03/28 06:55:03;;;;;;;9.85;2.10;;;3.60;99.90;;;;;;5110792;28;20481;-58
2023/03/28 06:57:29;;;;;;;12.20;2.30;;;3.70;99.90;;;;;;5113036;28;20080;-59
2023/03/28 06:59:55;;;;;;;11.68;2.25;;;3.70;99.90;;;;;;5093139;28;20052;-63
2023/03/28 07:02:20;;;;;;;11.00;2.28;;;3.70;99.90;;;;;;5112748;28;20046;-58
2023/03/28 07:04:46;;;;;;;15.95;3.22;;;3.80;99.90;;;;;;5112654;28;20153;-58
2023/03/28 07:07:12;;;;;;;8.40;1.70;;;3.90;99.90;;;;;;5111354;28;20044;-58
2023/03/28 07:09:37;;;;;;;12.82;2.30;;;4.00;99.90;;;;;;5112380;28;20058;-57
2023/03/28 07:12:04;;;;;;;9.60;2.22;;;4.00;99.90;;;;;;5112802;28;20035;-58
2023/03/28 07:14:30;;;;;;;10.88;2.22;;;4.00;99.90;;;;;;5112684;28;20055;-57
2023/03/28 07:16:56;;;;;;;16.05;2.60;;;4.40;99.90;;;;;;5112751;28;20057;-57
2023/03/28 07:19:22;;;;;;;12.80;2.30;;;4.80;99.90;;;;;;5111387;28;20067;-59
2023/03/28 07:21:48;;;;;;;10.68;1.83;;;4.90;99.90;;;;;;5112890;28;20039;-59
2023/03/28 07:24:14;;;;;;;17.20;2.17;;;4.90;99.90;;;;;;5116059;28;20427;-59
2023/03/28 07:26:39;;;;;;;9.63;1.95;;;5.30;99.90;;;;;;5116857;28;20092;-59
2023/03/28 07:29:05;;;;;;;10.13;2.08;;;5.70;99.90;;;;;;5116834;28;20043;-59
2023/03/28 07:31:31;;;;;;;8.50;2.47;;;6.00;99.90;;;;;;5116677;28;20058;-59
2023/03/28 07:33:57;;;;;;;6.15;1.92;;;6.10;99.90;;;;;;5114474;28;20105;-59
2023/03/28 07:36:25;;;;;;;8.90;1.90;;;6.20;99.90;;;;;;5116182;28;20040;-59
2023/03/28 07:38:51;;;;;;;9.82;1.70;;;6.20;99.90;;;;;;5116254;28;20028;-58
2023/03/28 07:41:17;;;;;;;8.40;1.65;;;6.50;99.90;;;;;;5116115;28;20069;-58
2023/03/28 07:43:43;;;;;;;9.88;1.85;;;6.80;99.90;;;;;;5116653;28;20380;-59
2023/03/28 07:46:13;;;;;;;7.57;1.83;;;7.10;99.90;;;;;;5116212;28;20043;-60
2023/03/28 07:48:40;;;;;;;8.70;1.83;;;7.20;99.90;;;;;;5116112;28;20120;-58
2023/03/28 07:51:08;;;;;;;8.70;2.20;;;7.30;99.90;;;;;;5114361;28;20110;-59
2023/03/28 07:53:36;;;;;;;9.52;1.88;;;7.30;99.90;;;;;;5115968;28;20079;-57
2023/03/28 07:56:02;;;;;;;7.28;1.75;;;7.60;99.90;;;;;;5116133;28;20044;-57
2023/03/28 07:58:27;;;;;;;7.57;1.45;;;8.00;99.90;;;;;;5115973;28;20092;-58
2023/03/28 08:00:53;;;;;;;12.45;2.30;;;8.20;99.90;;;;;;5115995;28;20036;-58
2023/03/28 08:03:21;;;;;;;7.82;1.80;;;8.30;99.90;;;;;;5115867;28;20050;-57
2023/03/28 08:05:50;;;;;;;5.70;1.63;;;8.90;99.90;;;;;;5115569;28;20108;-58
2023/03/28 08:08:18;;;;;;;7.20;1.77;;;9.30;99.90;;;;;;5115576;28;20066;-59
2023/03/28 08:10:50;;;;;;;10.02;1.75;;;9.40;99.90;;;;;;5115775;28;20393;-58
2023/03/28 08:13:17;;;;;;;8.05;1.50;;;9.80;99.90;;;;;;5116017;28;20167;-59
2023/03/28 08:15:42;;;;;;;5.18;1.13;;;9.90;99.90;;;;;;5115862;27;20119;-59
2023/03/28 08:18:08;;;;;;;7.38;1.40;;;9.80;99.90;;;;;;5116298;28;20124;-59
2023/03/28 08:20:34;;;;;;;6.97;1.70;;;10.00;99.90;;;;;;5114252;28;20104;-59
2023/03/28 08:23:01;;;;;;;8.45;1.52;;;10.30;99.90;;;;;;5115225;28;20499;-59
2023/03/28 08:25:27;;;;;;;6.93;1.20;;;10.30;99.90;;;;;;5115331;28;20035;-59
2023/03/28 08:27:53;;;;;;;6.15;1.20;;;10.30;99.90;;;;;;5115727;28;20448;-59
2023/03/28 08:30:19;;;;;;;3.95;0.85;;;10.40;99.90;;;;;;5114912;28;20119;-59
2023/03/28 08:32:45;;;;;;;4.95;1.63;;;10.00;99.90;;;;;;5114946;28;20070;-59
2023/03/28 08:35:11;;;;;;;5.70;1.52;;;9.60;99.90;;;;;;5115014;28;20039;-59
2023/03/28 08:37:36;;;;;;;5.82;1.13;;;9.50;99.90;;;;;;5102090;28;20032;-59
2023/03/28 08:40:06;;;;;;;5.47;0.95;;;9.20;99.90;;;;;;5094619;28;20032;-59
2023/03/28 08:42:35;;;;;;;8.02;1.92;;;9.00;99.90;;;;;;5094833;28;20110;-59
2023/03/28 08:45:20;;;;;;;8.30;2.15;;;8.80;99.90;;;;;;5094196;28;20462;-59
2023/03/28 08:48:14;;;;;;;8.98;1.40;;;8.80;99.90;;;;;;5093341;28;20097;-59
2023/03/28 08:51:18;;;;;;;5.13;1.38;;;8.60;99.90;;;;;;5092065;28;20486;-57
2023/03/28 08:54:07;;;;;;;5.82;1.73;;;8.70;99.90;;;;;;5092596;28;20044;-57
2023/03/28 08:56:37;;;;;;;7.32;1.38;;;8.60;99.90;;;;;;5093706;28;20074;-57
2023/03/28 08:59:30;;;;;;;9.60;1.60;;;8.60;99.90;;;;;;5093954;28;20056;-58
2023/03/28 09:01:56;;;;;;;7.30;1.67;;;8.50;99.90;;;;;;5090986;28;20040;-57
2023/03/28 09:04:33;;;;;;;6.07;1.38;;;8.70;99.90;;;;;;5093616;28;20448;-58
2023/03/28 09:07:23;;;;;;;9.05;1.65;;;8.60;99.90;;;;;;5091602;28;20425;-58
2023/03/28 09:09:57;;;;;;;3.85;1.10;;;9.00;99.90;;;;;;5092207;28;20047;-60
2023/03/28 09:12:55;;;;;;;2.88;1.00;;;9.30;99.90;;;;;;5092523;28;20123;-60
2023/03/28 09:15:39;;;;;;;7.28;1.52;;;9.40;99.90;;;;;;5011679;28;20037;-59
2023/03/28 09:18:32;;;;;;;6.40;1.17;;;9.60;99.90;;;;;;5011711;28;20030;-60
2023/03/28 09:21:30;;;;;;;3.95;1.20;;;9.70;99.90;;;;;;5012001;28;20038;-60
2023/03/28 09:24:20;;;;;;;7.45;1.50;;;9.90;99.90;;;;;;5011790;28;20436;-59
2023/03/28 09:27:03;;;;;;;4.75;1.48;;;9.60;99.90;;;;;;5012126;28;20057;-59
2023/03/28 09:29:31;;;;;;;4.43;1.02;;;9.40;99.90;;;;;;5010243;28;20034;-59
2023/03/28 09:32:06;;;;;;;6.07;1.35;;;9.20;99.90;;;;;;5007836;28;20399;-59
2023/03/28 09:34:43;;;;;;;3.90;1.10;;;9.40;99.90;;;;;;5010570;28;20042;-59
2023/03/28 09:37:23;;;;;;;4.13;0.88;;;9.40;99.90;;;;;;5007446;28;20037;-60
2023/03/28 09:39:53;;;;;;;3.60;0.90;;;9.60;99.90;;;;;;5009934;28;20385;-60
2023/03/28 09:42:35;;;;;;;5.28;0.90;;;9.60;99.90;;;;;;5008796;28;20030;-59
2023/03/28 09:45:25;;;;;;;7.53;1.20;;;9.70;99.90;;;;;;5018477;28;20484;-60
2023/03/28 09:47:51;;;;;;;4.95;1.20;;;9.70;99.90;;;;;;4919076;29;20091;-59
2023/03/28 09:50:18;;;;;;;2.40;0.82;;;9.60;99.90;;;;;;4917838;29;20127;-60
2023/03/28 09:52:45;;;;;;;2.90;1.00;;;9.50;99.90;;;;;;5001965;28;20457;-59
2023/03/28 09:55:23;;;;;;;4.88;1.15;;;9.50;99.90;;;;;;5011046;28;20116;-59
2023/03/28 09:58:18;;;;;;;5.30;1.00;;;9.70;99.90;;;;;;5011207;28;20172;-60
2023/03/28 10:00:50;;;;;;;4.28;0.60;;;9.70;99.90;;;;;;4930730;29;20161;-59
2023/03/28 10:03:33;;;;;;;5.25;1.10;;;9.80;99.90;;;;;;4933333;29;20048;-59
2023/03/28 10:06:17;;;;;;;5.50;1.52;;;9.70;99.90;;;;;;4924761;29;20258;-59
2023/03/28 10:08:43;;;;;;;5.25;0.85;;;9.90;99.90;;;;;;4933562;29;20035;-60
2023/03/28 10:11:16;;;;;;;4.45;0.93;;;9.90;99.90;;;;;;4932950;29;20110;-60
2023/03/28 10:13:46;;;;;;;2.42;1.10;;;9.80;99.90;;;;;;4933254;29;20048;-61
2023/03/28 10:16:15;;;;;;;4.93;1.30;;;10.00;99.90;;;;;;4930479;29;20171;-58
2023/03/28 10:18:42;;;;;;;8.20;1.67;;;9.90;99.90;;;;;;4932091;29;20050;-58
2023/03/28 10:21:20;;;;;;;5.15;1.10;;;9.80;99.90;;;;;;4932054;29;20040;-58
2023/03/28 10:24:00;;;;;;;5.70;0.93;;;9.60;99.90;;;;;;4934381;28;20047;-58
2023/03/28 10:26:27;;;;;;;8.68;1.70;;;9.70;99.90;;;;;;5033575;28;20127;-58
2023/03/28 10:28:56;;;;;;;3.50;1.10;;;10.00;99.90;;;;;;5049038;28;20045;-58
2023/03/28 10:31:30;;;;;;;7.75;1.42;;;9.80;99.90;;;;;;5013272;28;20124;-59
2023/03/28 10:33:58;;;;;;;6.28;1.13;;;9.50;99.90;;;;;;5029904;28;20052;-58
2023/03/28 10:44:17;;;;;;;5.10;1.30;;;9.00;99.90;;;;;;5093347;28;20035;-58
2023/03/28 10:46:44;;;;;;;5.07;1.10;;;8.80;99.90;;;;;;5092020;28;20044;-58
2023/03/28 10:49:14;;;;;;;5.88;1.20;;;8.80;99.90;;;;;;5092023;28;20181;-58
2023/03/28 10:51:42;;;;;;;6.50;1.45;;;8.80;99.90;;;;;;5092026;28;20047;-58
2023/03/28 10:54:32;;;;;;;4.72;1.38;;;9.10;99.90;;;;;;5096754;28;20043;-58
2023/03/28 10:57:23;;;;;;;2.78;1.10;;;9.10;99.90;;;;;;5111782;28;20076;-58
2023/03/28 11:00:11;;;;;;;3.85;1.35;;;9.50;99.90;;;;;;5111139;28;20573;-58
2023/03/28 11:02:55;;;;;;;9.88;2.17;;;9.60;99.90;;;;;;5111481;28;20096;-59
2023/03/28 11:06:14;;;;;;;4.40;2.00;;;9.30;99.90;;;;;;5112275;28;20123;-58
2023/03/28 11:08:52;;;;;;;7.07;1.48;;;9.30;99.90;;;;;;5029589;28;20587;-59
2023/03/28 11:11:35;;;;;;;8.00;1.42;;;9.20;99.90;;;;;;5028836;28;20212;-58
2023/03/28 11:14:00;;;;;;;4.43;1.70;;;9.30;99.90;;;;;;5029404;28;20156;-58
2023/03/28 11:16:44;;;;;;;6.00;1.70;;;9.20;99.90;;;;;;5029547;28;20116;-58
2023/03/28 11:19:57;;;;;;;5.55;1.70;;;9.20;99.90;;;;;;5029310;28;20068;-57
2023/03/28 11:22:30;;;;;;;5.85;2.05;;;9.20;99.90;;;;;;4970431;28;20078;-58
2023/03/28 11:25:31;;;;;;;5.43;1.75;;;9.10;99.90;;;;;;4970511;28;20046;-58
2023/03/28 11:28:05;;;;;;;4.38;1.85;;;9.20;99.90;;;;;;4970506;28;20130;-58
2023/03/28 11:30:35;;;;;;;4.25;1.80;;;9.40;99.90;;;;;;4970425;28;20178;-58
2023/03/28 11:33:13;;;;;;;4.80;2.17;;;9.50;99.90;;;;;;4970656;28;20057;-58
2023/03/28 11:36:13;;;;;;;4.28;1.60;;;9.70;99.90;;;;;;4970788;28;20523;-59
2023/03/28 11:38:43;;;;;;;4.40;1.92;;;9.80;99.90;;;;;;4998932;28;20052;-58
2023/03/28 11:41:18;;;;;;;6.97;2.35;;;9.80;99.90;;;;;;5069077;28;20563;-58
2023/03/28 11:43:50;;;;;;;6.70;2.38;;;10.20;99.90;;;;;;5052183;28;20057;-58
2023/03/28 11:46:22;;;;;;;5.10;1.83;;;10.20;99.90;;;;;;5069125;28;20057;-58
2023/03/28 11:49:00;;;;;;;5.65;1.95;;;10.10;99.90;;;;;;5069186;28;20553;-59
2023/03/28 11:51:59;;;;;;;5.93;1.92;;;10.00;99.90;;;;;;5069172;28;20093;-59
2023/03/28 11:54:42;;;;;;;6.90;2.33;;;10.20;99.90;;;;;;5023222;28;20045;-58
2023/03/28 11:57:28;;;;;;;5.28;1.95;;;10.10;99.90;;;;;;5009650;28;20096;-59
2023/03/28 11:59:59;;;;;;;5.70;1.77;;;10.30;99.90;;;;;;5009480;28;20049;-58
2023/03/28 12:02:46;;;;;;;4.10;1.60;;;10.30;99.90;;;;;;5009533;28;20092;-58
2023/03/28 12:05:21;;;;;;;6.93;1.90;;;10.10;99.90;;;;;;5009322;28;20057;-58
2023/03/28 12:07:59;;;;;;;4.40;1.80;;;10.30;99.90;;;;;;5009222;28;20052;-59
2023/03/28 12:10:34;;;;;;;7.03;1.83;;;10.40;99.90;;;;;;4996216;28;20113;-59
2023/03/28 12:13:19;;;;;;;6.75;2.38;;;10.60;99.90;;;;;;4997614;28;20443;-59
2023/03/28 12:15:48;;;;;;;3.90;1.90;;;10.90;99.90;;;;;;4996495;28;20046;-58
2023/03/28 12:18:29;;;;;;;9.18;2.42;;;10.90;99.90;;;;;;5012531;28;20062;-59
2023/03/28 12:21:06;;;;;;;7.22;2.03;;;11.00;99.90;;;;;;5012856;28;20038;-59
2023/03/28 12:23:53;;;;;;;7.70;2.25;;;11.10;99.90;;;;;;5012757;28;20070;-58
2023/03/28 12:26:29;;;;;;;6.30;1.83;;;11.00;99.90;;;;;;5012581;28;20057;-58
2023/03/28 12:29:00;;;;;;;4.05;1.60;;;11.10;99.90;;;;;;5012063;28;20147;-58
2023/03/28 12:31:57;;;;;;;11.05;2.20;;;11.30;99.90;;;;;;5058439;28;20062;-58
2023/03/28 12:34:38;;;;;;;5.60;1.88;;;11.00;99.90;;;;;;5090792;28;20052;-59
2023/03/28 12:37:13;;;;;;;3.65;1.65;;;10.90;99.90;;;;;;5092906;28;20501;-58
2023/03/28 12:40:00;;;;;;;6.13;1.75;;;11.00;99.90;;;;;;5094481;28;20090;-58
2023/03/28 12:42:27;;;;;;;4.05;1.90;;;11.20;99.90;;;;;;5094622;28;20036;-58
2023/03/28 12:44:55;;;;;;;9.93;2.80;;;11.00;99.90;;;;;;5094277;28;20044;-58
2023/03/28 12:47:24;;;;;;;11.73;3.25;;;11.00;99.90;;;;;;5094188;28;20497;-58
2023/03/28 12:50:06;;;;;;;4.85;1.75;;;10.90;99.90;;;;;;5094444;28;20040;-58
2023/03/28 12:52:37;;;;;;;5.60;1.85;;;10.80;99.90;;;;;;5094510;28;20122;-58
2023/03/28 12:55:06;;;;;;;3.88;1.90;;;11.10;99.90;;;;;;5101800;28;20097;-58
2023/03/28 12:57:44;;;;;;;4.85;1.45;;;11.30;99.90;;;;;;5114490;28;20035;-58
2023/03/28 13:00:10;;;;;;;3.40;1.55;;;11.30;99.90;;;;;;5114491;28;20051;-58
2023/03/28 13:03:00;;;;;;;4.25;1.85;;;11.30;98.40;;;;;;5114514;28;20040;-58
2023/03/28 13:05:54;;;;;;;9.43;2.03;;;11.50;98.40;;;;;;5114297;28;20032;-58
2023/03/28 13:08:41;;;;;;;3.08;1.73;;;11.40;98.60;;;;;;5114282;28;20036;-58
2023/03/28 13:11:25;;;;;;;5.68;2.00;;;11.20;98.90;;;;;;5114390;28;20039;-58
2023/03/28 13:14:12;;;;;;;3.75;2.05;;;11.10;99.30;;;;;;5086237;28;20076;-57
2023/03/28 13:17:18;;;;;;;5.00;2.00;;;11.30;99.40;;;;;;5087165;28;20044;-58
2023/03/28 13:19:50;;;;;;;10.85;2.40;;;11.20;99.90;;;;;;5009969;28;20423;-58
2023/03/28 13:22:30;;;;;;;4.22;2.10;;;11.20;99.90;;;;;;5008261;28;20108;-58
2023/03/28 13:25:16;;;;;;;4.15;2.28;;;11.00;99.10;;;;;;5010045;28;20104;-58
2023/03/28 13:27:41;;;;;;;8.63;2.15;;;10.80;99.90;;;;;;4932808;29;20442;-58